sensor_id;sensor_type;location;lat;lon;timestamp;temperature;humidity
20162;DHT22;51382;53.180;15.414;2023-07-13T00:11:59;16.80;99.90
20162;DHT22;51382;53.180;15.414;2023-07-13T00:27:12;16.30;99.90
20162;DHT22;51382;53.180;15.414;2023-07-13T00:42:23;15.90;99.90
20162;DHT22;51382;53.180;15.414;2023-07-13T00:57:30;15.70;99.90
20162;DHT22;51382;53.180;15.414;2023-07-13T01:12:43;15.40;99.90
20162;DHT22;51382;53.180;15.414;2023-07-13T01:27:54;14.60;99.90
20162;DHT22;51382;53.180;15.414;2023-07-13T01:43:06;14.50;99.90
20162;DHT22;51382;53.180;15.414;2023-07-13T01:58:18;14.90;99.90
20162;DHT22;51382;53.180;15.414;2023-07-13T02:13:30;14.80;99.90
20162;DHT22;51382;53.180;15.414;2023-07-13T02:28:41;14.80;99.90
20162;DHT22;51382;53.180;15.414;2023-07-13T02:43:54;14.70;99.90
20162;DHT22;51382;53.180;15.414;2023-07-13T02:59:11;14.60;99.90
20162;DHT22;51382;53.180;15.414;2023-07-13T03:14:23;14.30;99.90
20162;DHT22;51382;53.180;15.414;2023-07-13T03:29:35;14.50;99.90
20162;DHT22;51382;53.180;15.414;2023-07-13T03:44:48;14.40;99.90
20162;DHT22;51382;53.180;15.414;2023-07-13T04:00:00;14.30;99.90
20162;DHT22;51382;53.180;15.414;2023-07-13T04:15:18;15.30;99.90
20162;DHT22;51382;53.180;15.414;2023-07-13T04:30:29;15.90;99.90
20162;DHT22;51382;53.180;15.414;2023-07-13T04:45:41;20.30;99.90
20162;DHT22;51382;53.180;15.414;2023-07-13T05:00:52;26.40;86.40
20162;DHT22;51382;53.180;15.414;2023-07-13T05:16:08;26.20;81.10
20162;DHT22;51382;53.180;15.414;2023-07-13T05:31:19;27.10;74.30
20162;DHT22;51382;53.180;15.414;2023-07-13T05:46:26;28.20;68.60
20162;DHT22;51382;53.180;15.414;2023-07-13T06:01:37;29.90;62.00
20162;DHT22;51382;53.180;15.414;2023-07-13T06:16:48;32.50;56.80
20162;DHT22;51382;53.180;15.414;2023-07-13T06:31:59;31.50;56.80
20162;DHT22;51382;53.180;15.414;2023-07-13T06:47:11;31.40;56.10
20162;DHT22;51382;53.180;15.414;2023-07-13T07:02:22;25.70;64.60
20162;DHT22;51382;53.180;15.414;2023-07-13T07:17:33;31.50;54.70
20162;DHT22;51382;53.180;15.414;2023-07-13T07:32:45;27.10;64.40
20162;DHT22;51382;53.180;15.414;2023-07-13T07:47:57;30.50;54.40
20162;DHT22;51382;53.180;15.414;2023-07-13T08:03:08;32.80;50.70
20162;DHT22;51382;53.180;15.414;2023-07-13T08:18:20;31.10;51.90
20162;DHT22;51382;53.180;15.414;2023-07-13T08:33:31;31.50;47.70
20162;DHT22;51382;53.180;15.414;2023-07-13T08:48:44;27.30;56.00
20162;DHT22;51382;53.180;15.414;2023-07-13T09:04:01;26.00;58.60
20162;DHT22;51382;53.180;15.414;2023-07-13T09:19:19;26.10;57.70
20162;DHT22;51382;53.180;15.414;2023-07-13T09:34:34;25.70;59.00
20162;DHT22;51382;53.180;15.414;2023-07-13T09:49:45;26.50;57.90
20162;DHT22;51382;53.180;15.414;2023-07-13T10:04:57;26.50;55.60
20162;DHT22;51382;53.180;15.414;2023-07-13T10:20:09;26.40;56.50
20162;DHT22;51382;53.180;15.414;2023-07-13T10:35:21;26.20;54.60
20162;DHT22;51382;53.180;15.414;2023-07-13T10:50:33;26.40;54.40
20162;DHT22;51382;53.180;15.414;2023-07-13T11:05:51;26.90;51.90
20162;DHT22;51382;53.180;15.414;2023-07-13T11:21:18;25.50;55.30
20162;DHT22;51382;53.180;15.414;2023-07-13T11:36:37;25.90;56.60
20162;DHT22;51382;53.180;15.414;2023-07-13T11:51:52;26.90;53.60
20162;DHT22;51382;53.180;15.414;2023-07-13T12:07:06;25.20;55.30
20162;DHT22;51382;53.180;15.414;2023-07-13T12:22:27;25.00;56.00
20162;DHT22;51382;53.180;15.414;2023-07-13T12:37:39;25.70;53.80
20162;DHT22;51382;53.180;15.414;2023-07-13T12:52:53;25.80;55.20
20162;DHT22;51382;53.180;15.414;2023-07-13T13:08:09;26.20;51.60
20162;DHT22;51382;53.180;15.414;2023-07-13T13:23:22;26.30;50.50
20162;DHT22;51382;53.180;15.414;2023-07-13T13:38:33;26.40;50.60
20162;DHT22;51382;53.180;15.414;2023-07-13T13:53:44;26.50;50.60
20162;DHT22;51382;53.180;15.414;2023-07-13T14:08:56;26.40;51.50
20162;DHT22;51382;53.180;15.414;2023-07-13T14:24:08;26.40;49.80
20162;DHT22;51382;53.180;15.414;2023-07-13T14:39:20;26.30;52.00
20162;DHT22;51382;53.180;15.414;2023-07-13T14:54:32;26.10;51.30
20162;DHT22;51382;53.180;15.414;2023-07-13T15:09:43;25.50;53.30
20162;DHT22;51382;53.180;15.414;2023-07-13T15:24:55;25.60;53.50
20162;DHT22;51382;53.180;15.414;2023-07-13T15:40:10;25.40;54.20
20162;DHT22;51382;53.180;15.414;2023-07-13T15:55:22;25.40;54.70
20162;DHT22;51382;53.180;15.414;2023-07-13T16:10:34;25.00;54.30
20162;DHT22;51382;53.180;15.414;2023-07-13T16:25:48;25.00;53.80
20162;DHT22;51382;53.180;15.414;2023-07-13T16:41:01;24.90;55.30
20162;DHT22;51382;53.180;15.414;2023-07-13T16:56:17;25.20;55.00
20162;DHT22;51382;53.180;15.414;2023-07-13T17:11:30;24.60;57.00
20162;DHT22;51382;53.180;15.414;2023-07-13T17:26:43;24.40;57.00
20162;DHT22;51382;53.180;15.414;2023-07-13T17:41:54;24.30;56.30
20162;DHT22;51382;53.180;15.414;2023-07-13T17:57:07;23.50;59.70
20162;DHT22;51382;53.180;15.414;2023-07-13T18:12:18;22.80;61.80
20162;DHT22;51382;53.180;15.414;2023-07-13T18:27:30;21.90;69.10
20162;DHT22;51382;53.180;15.414;2023-07-13T18:42:43;19.70;84.60
20162;DHT22;51382;53.180;15.414;2023-07-13T18:58:01;19.30;89.10
20162;DHT22;51382;53.180;15.414;2023-07-13T19:13:15;18.50;92.10
20162;DHT22;51382;53.180;15.414;2023-07-13T19:28:32;18.40;92.80
20162;DHT22;51382;53.180;15.414;2023-07-13T19:43:47;18.10;94.50
20162;DHT22;51382;53.180;15.414;2023-07-13T19:58:59;18.40;94.40
20162;DHT22;51382;53.180;15.414;2023-07-13T20:14:19;18.30;96.50
20162;DHT22;51382;53.180;15.414;2023-07-13T20:29:32;18.00;98.30
20162;DHT22;51382;53.180;15.414;2023-07-13T20:44:46;18.10;97.80
20162;DHT22;51382;53.180;15.414;2023-07-13T20:59:58;18.30;99.90
20162;DHT22;51382;53.180;15.414;2023-07-13T21:15:13;17.50;99.90
20162;DHT22;51382;53.180;15.414;2023-07-13T21:30:25;17.10;99.90
20162;DHT22;51382;53.180;15.414;2023-07-13T21:45:41;16.70;99.90
20162;DHT22;51382;53.180;15.414;2023-07-13T22:00:52;16.60;99.90
20162;DHT22;51382;53.180;15.414;2023-07-13T22:16:04;15.60;99.90
20162;DHT22;51382;53.180;15.414;2023-07-13T22:31:21;15.60;99.90
20162;DHT22;51382;53.180;15.414;2023-07-13T22:46:33;15.30;99.90
20162;DHT22;51382;53.180;15.414;2023-07-13T23:01:45;15.10;99.90
20162;DHT22;51382;53.180;15.414;2023-07-13T23:16:57;15.10;99.90
20162;DHT22;51382;53.180;15.414;2023-07-13T23:32:10;14.60;99.90
20162;DHT22;51382;53.180;15.414;2023-07-13T23:47:22;14.30;99.90
